sensor_id;sensor_type;location;lat;lon;timestamp;pressure;altitude;pressure_sealevel;temperature;humidity
62011;BME280;47967;51.756;10.174;2022-12-07T05:04:34;99441.16;;;4.33;83.66
62011;BME280;47967;51.756;10.174;2022-12-07T05:08:36;99441.66;;;4.37;83.37
62011;BME280;47967;51.756;10.174;2022-12-07T05:12:39;99435.66;;;4.43;83.32
62011;BME280;47967;51.756;10.174;2022-12-07T05:16:43;99443.53;;;4.44;83.06
62011;BME280;47967;51.756;10.174;2022-12-07T05:20:47;99443.66;;;4.43;82.86
62011;BME280;47967;51.756;10.174;2022-12-07T05:24:50;99440.34;;;4.32;82.81
62011;BME280;47967;51.756;10.174;2022-12-07T05:28:54;99433.00;;;4.26;83.15
62011;BME280;47967;51.756;10.174;2022-12-07T05:32:57;99441.34;;;4.15;83.50
62011;BME280;47967;51.756;10.174;2022-12-07T05:37:01;99439.03;;;4.20;83.57
62011;BME280;47967;51.756;10.174;2022-12-07T05:41:05;99433.16;;;4.33;83.00
62011;BME280;47967;51.756;10.174;2022-12-07T05:45:09;99421.81;;;4.39;82.77
62011;BME280;47967;51.756;10.174;2022-12-07T05:49:12;99432.97;;;4.43;82.71
62011;BME280;47967;51.756;10.174;2022-12-07T05:53:16;99432.66;;;4.46;83.02
62011;BME280;47967;51.756;10.174;2022-12-07T05:57:23;99428.81;;;4.48;83.04
62011;BME280;47967;51.756;10.174;2022-12-07T06:01:26;99419.97;;;4.48;82.70
62011;BME280;47967;51.756;10.174;2022-12-07T06:05:29;99415.47;;;4.48;82.99
62011;BME280;47967;51.756;10.174;2022-12-07T06:09:33;99411.63;;;4.51;82.42
62011;BME280;47967;51.756;10.174;2022-12-07T06:13:36;99411.28;;;4.54;82.28
62011;BME280;47967;51.756;10.174;2022-12-07T06:17:47;99409.28;;;4.48;82.20
62011;BME280;47967;51.756;10.174;2022-12-07T06:21:49;99414.78;;;4.46;82.28
62011;BME280;47967;51.756;10.174;2022-12-07T06:25:53;99410.63;;;4.44;82.54
62011;BME280;47967;51.756;10.174;2022-12-07T06:29:56;99401.44;;;4.46;82.48
62011;BME280;47967;51.756;10.174;2022-12-07T06:33:59;99410.63;;;4.44;82.23
62011;BME280;47967;51.756;10.174;2022-12-07T06:38:02;99410.28;;;4.39;82.49
62011;BME280;47967;51.756;10.174;2022-12-07T06:42:06;99417.13;;;4.58;81.44
62011;BME280;47967;51.756;10.174;2022-12-07T06:46:08;99415.09;;;4.60;81.21
62011;BME280;47967;51.756;10.174;2022-12-07T06:50:12;99415.59;;;4.63;81.16
62011;BME280;47967;51.756;10.174;2022-12-07T06:54:15;99415.41;;;4.65;81.18
62011;BME280;47967;51.756;10.174;2022-12-07T06:58:19;99421.13;;;4.62;80.94
62011;BME280;47967;51.756;10.174;2022-12-07T07:02:21;99415.59;;;4.63;81.22
62011;BME280;47967;51.756;10.174;2022-12-07T07:06:24;99426.09;;;4.65;81.35
62011;BME280;47967;51.756;10.174;2022-12-07T07:10:27;99418.09;;;4.65;81.34
62011;BME280;47967;51.756;10.174;2022-12-07T07:14:31;99419.94;;;4.56;81.25
62011;BME280;47967;51.756;10.174;2022-12-07T07:18:34;99431.31;;;4.67;81.26
62011;BME280;47967;51.756;10.174;2022-12-07T07:22:37;99428.78;;;4.65;81.07
62011;BME280;47967;51.756;10.174;2022-12-07T07:26:39;99430.94;;;4.70;80.85
62011;BME280;47967;51.756;10.174;2022-12-07T07:30:44;99432.59;;;4.79;80.53
62011;BME280;47967;51.756;10.174;2022-12-07T07:34:47;99435.78;;;4.66;80.26
62011;BME280;47967;51.756;10.174;2022-12-07T07:38:49;99437.28;;;4.69;80.34
62011;BME280;47967;51.756;10.174;2022-12-07T07:42:53;99425.78;;;4.68;81.05
62011;BME280;47967;51.756;10.174;2022-12-07T07:46:57;99432.78;;;4.69;80.52
62011;BME280;47967;51.756;10.174;2022-12-07T07:51:00;99432.47;;;4.64;80.86
62011;BME280;47967;51.756;10.174;2022-12-07T07:55:03;99440.63;;;4.71;81.21
62011;BME280;47967;51.756;10.174;2022-12-07T07:59:06;99438.47;;;4.66;80.74
62011;BME280;47967;51.756;10.174;2022-12-07T08:03:09;99440.81;;;4.53;80.92
62011;BME280;47967;51.756;10.174;2022-12-07T08:07:13;99444.34;;;4.53;81.55
62011;BME280;47967;51.756;10.174;2022-12-07T08:11:16;99440.00;;;4.52;81.60
62011;BME280;47967;51.756;10.174;2022-12-07T08:15:18;99455.22;;;4.43;82.17
62011;BME280;47967;51.756;10.174;2022-12-07T08:19:23;99453.69;;;4.49;81.51
62011;BME280;47967;51.756;10.174;2022-12-07T08:23:26;99454.84;;;4.46;82.02
62011;BME280;47967;51.756;10.174;2022-12-07T08:27:39;99447.16;;;4.52;81.72
62011;BME280;47967;51.756;10.174;2022-12-07T08:31:42;99453.34;;;4.44;81.98
62011;BME280;47967;51.756;10.174;2022-12-07T08:35:46;99453.72;;;4.41;81.84
62011;BME280;47967;51.756;10.174;2022-12-07T08:39:48;99459.69;;;4.51;81.69
62011;BME280;47967;51.756;10.174;2022-12-07T08:43:51;99456.69;;;4.54;81.93
62011;BME280;47967;51.756;10.174;2022-12-07T08:47:57;99465.38;;;4.64;81.50
62011;BME280;47967;51.756;10.174;2022-12-07T08:52:04;99460.19;;;4.63;81.40
62011;BME280;47967;51.756;10.174;2022-12-07T08:56:07;99460.84;;;4.65;80.85
62011;BME280;47967;51.756;10.174;2022-12-07T09:00:11;99459.63;;;4.92;80.56
62011;BME280;47967;51.756;10.174;2022-12-07T09:04:14;99464.25;;;5.15;79.04
62011;BME280;47967;51.756;10.174;2022-12-07T09:08:19;99458.59;;;5.50;78.39
62011;BME280;47967;51.756;10.174;2022-12-07T09:12:22;99455.34;;;5.31;77.53
62011;BME280;47967;51.756;10.174;2022-12-07T09:16:24;99461.00;;;5.28;77.41
62011;BME280;47967;51.756;10.174;2022-12-07T09:20:27;99465.88;;;5.24;77.92
62011;BME280;47967;51.756;10.174;2022-12-07T09:24:31;99470.44;;;5.16;77.66
62011;BME280;47967;51.756;10.174;2022-12-07T09:28:34;99467.38;;;5.27;77.58
62011;BME280;47967;51.756;10.174;2022-12-07T09:32:36;99460.56;;;5.16;77.88
62011;BME280;47967;51.756;10.174;2022-12-07T09:36:39;99476.09;;;5.12;77.84
62011;BME280;47967;51.756;10.174;2022-12-07T09:40:45;99470.41;;;5.24;77.69
62011;BME280;47967;51.756;10.174;2022-12-07T09:44:48;99467.06;;;5.22;77.87
62011;BME280;47967;51.756;10.174;2022-12-07T09:48:51;99465.84;;;5.33;77.40
62011;BME280;47967;51.756;10.174;2022-12-07T09:52:55;99465.69;;;5.26;77.28
62011;BME280;47967;51.756;10.174;2022-12-07T09:57:06;99466.53;;;5.26;76.64
62011;BME280;47967;51.756;10.174;2022-12-07T10:01:13;99462.41;;;5.07;77.13
62011;BME280;47967;51.756;10.174;2022-12-07T10:05:18;99457.94;;;5.00;77.85
62011;BME280;47967;51.756;10.174;2022-12-07T10:09:25;99454.78;;;4.96;77.93
62011;BME280;47967;51.756;10.174;2022-12-07T10:13:37;99459.25;;;5.12;77.71
62011;BME280;47967;51.756;10.174;2022-12-07T10:17:41;99453.59;;;5.07;78.16
62011;BME280;47967;51.756;10.174;2022-12-07T10:22:00;99456.91;;;5.09;77.55
62011;BME280;47967;51.756;10.174;2022-12-07T10:26:21;99452.00;;;5.29;77.31
62011;BME280;47967;51.756;10.174;2022-12-07T10:30:31;99459.22;;;5.20;76.63
62011;BME280;47967;51.756;10.174;2022-12-07T10:34:36;99463.47;;;5.38;76.71
62011;BME280;47967;51.756;10.174;2022-12-07T10:38:46;99450.59;;;5.41;75.86
62011;BME280;47967;51.756;10.174;2022-12-07T10:43:00;99458.50;;;5.35;76.20
62011;BME280;47967;51.756;10.174;2022-12-07T10:47:22;99447.78;;;5.66;75.60
62011;BME280;47967;51.756;10.174;2022-12-07T10:51:33;99458.81;;;5.40;76.07
62011;BME280;47967;51.756;10.174;2022-12-07T10:55:48;99447.31;;;5.31;76.49
62011;BME280;47967;51.756;10.174;2022-12-07T11:00:03;99450.03;;;5.15;76.89
62011;BME280;47967;51.756;10.174;2022-12-07T11:04:24;99437.44;;;5.32;76.80
62011;BME280;47967;51.756;10.174;2022-12-07T11:08:39;99434.25;;;5.68;75.57
62011;BME280;47967;51.756;10.174;2022-12-07T11:13:05;99427.69;;;5.70;75.58
62011;BME280;47967;51.756;10.174;2022-12-07T11:17:19;99437.75;;;5.68;75.66
62011;BME280;47967;51.756;10.174;2022-12-07T11:21:38;99437.09;;;5.35;75.63
62011;BME280;47967;51.756;10.174;2022-12-07T11:25:53;99428.63;;;5.23;75.97
62011;BME280;47967;51.756;10.174;2022-12-07T11:30:08;99427.94;;;5.21;77.26
62011;BME280;47967;51.756;10.174;2022-12-07T11:34:19;99416.97;;;5.47;76.17
62011;BME280;47967;51.756;10.174;2022-12-07T11:38:40;99420.53;;;5.63;75.22
62011;BME280;47967;51.756;10.174;2022-12-07T11:42:48;99413.97;;;5.42;75.23
62011;BME280;47967;51.756;10.174;2022-12-07T11:46:56;99425.03;;;5.39;75.25
62011;BME280;47967;51.756;10.174;2022-12-07T11:51:02;99412.53;;;5.31;75.54
62011;BME280;47967;51.756;10.174;2022-12-07T11:55:16;99415.81;;;5.41;75.36
62011;BME280;47967;51.756;10.174;2022-12-07T11:59:25;99412.25;;;5.18;75.38
62011;BME280;47967;51.756;10.174;2022-12-07T12:03:34;99419.81;;;5.14;75.79
62011;BME280;47967;51.756;10.174;2022-12-07T12:07:40;99407.72;;;5.26;75.77
62011;BME280;47967;51.756;10.174;2022-12-07T12:17:21;99398.84;;;5.57;74.39
62011;BME280;47967;51.756;10.174;2022-12-07T12:21:28;99397.75;;;5.43;73.93
62011;BME280;47967;51.756;10.174;2022-12-07T12:25:38;99394.34;;;5.26;74.84
62011;BME280;47967;51.756;10.174;2022-12-07T12:29:44;99390.50;;;5.21;74.77
62011;BME280;47967;51.756;10.174;2022-12-07T12:33:48;99386.97;;;5.28;75.15
62011;BME280;47967;51.756;10.174;2022-12-07T12:37:52;99390.22;;;5.47;74.99
62011;BME280;47967;51.756;10.174;2022-12-07T12:41:59;99378.66;;;5.47;74.33
62011;BME280;47967;51.756;10.174;2022-12-07T12:46:38;99375.97;;;5.47;73.79
62011;BME280;47967;51.756;10.174;2022-12-07T13:00:18;99364.53;;;5.84;72.51
62011;BME280;47967;51.756;10.174;2022-12-07T13:04:25;99357.03;;;5.80;71.91
62011;BME280;47967;51.756;10.174;2022-12-07T13:08:28;99363.22;;;5.57;72.84
62011;BME280;47967;51.756;10.174;2022-12-07T13:12:35;99360.78;;;5.47;73.11
62011;BME280;47967;51.756;10.174;2022-12-07T13:16:41;99354.75;;;5.45;73.63
62011;BME280;47967;51.756;10.174;2022-12-07T13:20:52;99368.19;;;5.37;72.93
62011;BME280;47967;51.756;10.174;2022-12-07T13:24:55;99354.06;;;5.20;74.00
62011;BME280;47967;51.756;10.174;2022-12-07T13:29:07;99358.06;;;5.24;74.06
62011;BME280;47967;51.756;10.174;2022-12-07T13:33:14;99355.06;;;5.19;73.74
62011;BME280;47967;51.756;10.174;2022-12-07T13:37:24;99345.88;;;5.21;73.71
62011;BME280;47967;51.756;10.174;2022-12-07T13:41:31;99354.00;;;4.96;73.43
62011;BME280;47967;51.756;10.174;2022-12-07T13:45:34;99353.00;;;4.97;74.13
62011;BME280;47967;51.756;10.174;2022-12-07T13:49:55;99353.25;;;4.79;74.43
62011;BME280;47967;51.756;10.174;2022-12-07T13:54:00;99351.44;;;4.72;74.44
62011;BME280;47967;51.756;10.174;2022-12-07T13:58:03;99349.16;;;4.52;75.29
62011;BME280;47967;51.756;10.174;2022-12-07T14:02:18;99348.25;;;4.76;75.21
62011;BME280;47967;51.756;10.174;2022-12-07T14:06:26;99340.44;;;4.67;75.19
62011;BME280;47967;51.756;10.174;2022-12-07T14:10:31;99326.69;;;4.86;74.77
62011;BME280;47967;51.756;10.174;2022-12-07T14:14:35;99339.19;;;4.86;74.35
62011;BME280;47967;51.756;10.174;2022-12-07T14:18:39;99343.09;;;4.75;74.28
62011;BME280;47967;51.756;10.174;2022-12-07T14:22:54;99339.44;;;4.68;74.80
62011;BME280;47967;51.756;10.174;2022-12-07T14:26:58;99340.28;;;4.68;75.29
62011;BME280;47967;51.756;10.174;2022-12-07T14:31:01;99335.41;;;4.72;74.91
62011;BME280;47967;51.756;10.174;2022-12-07T14:35:09;99337.59;;;4.68;74.98
62011;BME280;47967;51.756;10.174;2022-12-07T14:39:14;99354.81;;;4.65;75.03
62011;BME280;47967;51.756;10.174;2022-12-07T14:43:17;99336.94;;;4.66;74.70
62011;BME280;47967;51.756;10.174;2022-12-07T14:47:20;99335.75;;;4.69;74.90
62011;BME280;47967;51.756;10.174;2022-12-07T14:51:44;99337.78;;;4.58;75.25
62011;BME280;47967;51.756;10.174;2022-12-07T14:56:08;99334.50;;;4.48;75.06
62011;BME280;47967;51.756;10.174;2022-12-07T15:00:15;99331.84;;;4.31;76.01
62011;BME280;47967;51.756;10.174;2022-12-07T15:04:19;99329.88;;;4.25;76.08
62011;BME280;47967;51.756;10.174;2022-12-07T15:08:21;99329.38;;;4.30;75.98
62011;BME280;47967;51.756;10.174;2022-12-07T15:12:26;99321.38;;;4.22;76.41
62011;BME280;47967;51.756;10.174;2022-12-07T15:16:28;99330.88;;;4.16;76.72
62011;BME280;47967;51.756;10.174;2022-12-07T15:20:51;99327.19;;;4.25;77.29
62011;BME280;47967;51.756;10.174;2022-12-07T15:24:54;99328.50;;;4.29;76.95
62011;BME280;47967;51.756;10.174;2022-12-07T15:28:58;99331.84;;;4.40;76.49
62011;BME280;47967;51.756;10.174;2022-12-07T15:33:01;99333.72;;;4.23;76.36
62011;BME280;47967;51.756;10.174;2022-12-07T15:37:04;99337.75;;;4.10;76.27
62011;BME280;47967;51.756;10.174;2022-12-07T15:41:07;99322.41;;;4.04;76.66
62011;BME280;47967;51.756;10.174;2022-12-07T15:45:11;99325.91;;;4.05;77.23
62011;BME280;47967;51.756;10.174;2022-12-07T15:49:16;99333.25;;;3.94;77.18
62011;BME280;47967;51.756;10.174;2022-12-07T15:53:19;99326.06;;;4.03;77.14
62011;BME280;47967;51.756;10.174;2022-12-07T15:57:22;99328.88;;;4.10;77.08
62011;BME280;47967;51.756;10.174;2022-12-07T16:01:27;99324.72;;;4.15;76.97
62011;BME280;47967;51.756;10.174;2022-12-07T16:05:30;99322.22;;;4.14;77.18
62011;BME280;47967;51.756;10.174;2022-12-07T16:09:33;99320.03;;;4.18;77.14
62011;BME280;47967;51.756;10.174;2022-12-07T16:13:35;99317.19;;;4.19;76.89
62011;BME280;47967;51.756;10.174;2022-12-07T16:17:39;99314.22;;;4.14;77.25
62011;BME280;47967;51.756;10.174;2022-12-07T16:21:42;99316.38;;;4.10;77.85
62011;BME280;47967;51.756;10.174;2022-12-07T16:25:45;99310.69;;;4.13;77.25
62011;BME280;47967;51.756;10.174;2022-12-07T16:29:48;99329.69;;;4.19;77.43
62011;BME280;47967;51.756;10.174;2022-12-07T16:33:53;99321.38;;;4.22;77.30
62011;BME280;47967;51.756;10.174;2022-12-07T16:37:56;99333.72;;;4.23;77.18
62011;BME280;47967;51.756;10.174;2022-12-07T16:41:59;99319.38;;;4.15;77.25
62011;BME280;47967;51.756;10.174;2022-12-07T16:46:01;99318.69;;;4.13;76.98
62011;BME280;47967;51.756;10.174;2022-12-07T16:50:07;99325.03;;;4.12;77.18
62011;BME280;47967;51.756;10.174;2022-12-07T16:54:11;99325.06;;;4.04;77.13
62011;BME280;47967;51.756;10.174;2022-12-07T16:58:15;99324.72;;;4.07;77.30
62011;BME280;47967;51.756;10.174;2022-12-07T17:02:19;99315.41;;;4.03;77.16
62011;BME280;47967;51.756;10.174;2022-12-07T17:06:26;99317.88;;;4.05;76.93
62011;BME280;47967;51.756;10.174;2022-12-07T17:10:29;99313.06;;;4.00;77.17
62011;BME280;47967;51.756;10.174;2022-12-07T17:14:32;99310.72;;;3.89;77.25
62011;BME280;47967;51.756;10.174;2022-12-07T17:18:52;99287.88;;;3.78;77.25
62011;BME280;47967;51.756;10.174;2022-12-07T17:22:56;99297.88;;;3.76;77.49
62011;BME280;47967;51.756;10.174;2022-12-07T17:26:59;99300.91;;;3.73;77.52
62011;BME280;47967;51.756;10.174;2022-12-07T17:31:05;99298.72;;;3.68;78.26
62011;BME280;47967;51.756;10.174;2022-12-07T17:35:09;99299.91;;;3.57;78.42
62011;BME280;47967;51.756;10.174;2022-12-07T17:39:15;99303.91;;;3.53;78.27
62011;BME280;47967;51.756;10.174;2022-12-07T17:43:18;99288.25;;;3.66;78.47
62011;BME280;47967;51.756;10.174;2022-12-07T17:47:21;99289.06;;;3.75;78.56
62011;BME280;47967;51.756;10.174;2022-12-07T17:51:25;99287.72;;;3.79;78.22
62011;BME280;47967;51.756;10.174;2022-12-07T17:55:46;99288.06;;;3.76;78.21
62011;BME280;47967;51.756;10.174;2022-12-07T18:00:09;99282.22;;;3.64;77.91
62011;BME280;47967;51.756;10.174;2022-12-07T18:04:13;99282.72;;;3.68;78.53
62011;BME280;47967;51.756;10.174;2022-12-07T18:08:15;99284.03;;;3.72;78.40
62011;BME280;47967;51.756;10.174;2022-12-07T18:12:20;99286.72;;;3.80;78.19
62011;BME280;47967;51.756;10.174;2022-12-07T18:16:24;99286.03;;;3.87;78.13
62011;BME280;47967;51.756;10.174;2022-12-07T18:20:27;99276.22;;;3.87;77.97
62011;BME280;47967;51.756;10.174;2022-12-07T18:24:30;99283.38;;;3.95;78.10
62011;BME280;47967;51.756;10.174;2022-12-07T18:28:39;99285.53;;;4.08;78.17
62011;BME280;47967;51.756;10.174;2022-12-07T18:32:42;99278.53;;;4.07;78.43
62011;BME280;47967;51.756;10.174;2022-12-07T18:36:47;99274.34;;;4.04;77.82
62011;BME280;47967;51.756;10.174;2022-12-07T18:40:51;99271.69;;;4.04;78.40
62011;BME280;47967;51.756;10.174;2022-12-07T18:44:55;99281.88;;;4.00;78.13
62011;BME280;47967;51.756;10.174;2022-12-07T18:48:57;99274.69;;;3.93;78.74
62011;BME280;47967;51.756;10.174;2022-12-07T18:53:03;99278.22;;;3.93;78.53
62011;BME280;47967;51.756;10.174;2022-12-07T18:57:06;99279.53;;;3.97;79.11
62011;BME280;47967;51.756;10.174;2022-12-07T19:01:10;99269.34;;;4.01;78.78
62011;BME280;47967;51.756;10.174;2022-12-07T19:05:13;99276.50;;;4.09;78.85
62011;BME280;47967;51.756;10.174;2022-12-07T19:09:17;99269.47;;;4.16;79.27
62011;BME280;47967;51.756;10.174;2022-12-07T19:13:20;99269.81;;;4.13;79.01
62011;BME280;47967;51.756;10.174;2022-12-07T19:17:24;99270.13;;;4.18;79.11
62011;BME280;47967;51.756;10.174;2022-12-07T19:21:27;99266.97;;;4.14;79.40
62011;BME280;47967;51.756;10.174;2022-12-07T19:25:30;99269.66;;;4.14;79.80
62011;BME280;47967;51.756;10.174;2022-12-07T19:29:33;99263.13;;;4.09;79.32
62011;BME280;47967;51.756;10.174;2022-12-07T19:33:37;99248.78;;;4.18;79.16
62011;BME280;47967;51.756;10.174;2022-12-07T19:37:40;99253.13;;;4.19;79.43
62011;BME280;47967;51.756;10.174;2022-12-07T19:41:43;99247.78;;;4.11;79.33
62011;BME280;47967;51.756;10.174;2022-12-07T19:45:46;99250.97;;;4.06;79.63
62011;BME280;47967;51.756;10.174;2022-12-07T19:49:50;99238.66;;;3.97;79.94
62011;BME280;47967;51.756;10.174;2022-12-07T19:53:54;99247.66;;;4.04;79.95
62011;BME280;47967;51.756;10.174;2022-12-07T19:57:57;99245.50;;;3.99;80.56
62011;BME280;47967;51.756;10.174;2022-12-07T20:02:00;99229.16;;;3.94;80.53
62011;BME280;47967;51.756;10.174;2022-12-07T20:06:08;99225.84;;;3.84;80.62
62011;BME280;47967;51.756;10.174;2022-12-07T20:10:11;99225.34;;;3.89;81.12
62011;BME280;47967;51.756;10.174;2022-12-07T20:14:14;99225.84;;;3.84;81.36
62011;BME280;47967;51.756;10.174;2022-12-07T20:18:16;99214.47;;;3.90;81.00
62011;BME280;47967;51.756;10.174;2022-12-07T20:22:20;99211.16;;;3.88;81.10
62011;BME280;47967;51.756;10.174;2022-12-07T20:26:23;99212.50;;;3.84;81.58
62011;BME280;47967;51.756;10.174;2022-12-07T20:30:25;99209.34;;;3.72;82.02
62011;BME280;47967;51.756;10.174;2022-12-07T20:34:28;99205.53;;;3.66;81.76
62011;BME280;47967;51.756;10.174;2022-12-07T20:38:32;99198.53;;;3.74;81.81
62011;BME280;47967;51.756;10.174;2022-12-07T20:42:35;99199.72;;;3.71;81.87
62011;BME280;47967;51.756;10.174;2022-12-07T20:46:41;99197.19;;;3.69;81.97
62011;BME280;47967;51.756;10.174;2022-12-07T20:50:44;99190.53;;;3.65;81.47
62011;BME280;47967;51.756;10.174;2022-12-07T20:54:48;99198.66;;;3.72;81.96
62011;BME280;47967;51.756;10.174;2022-12-07T20:58:51;99198.00;;;3.78;81.56
62011;BME280;47967;51.756;10.174;2022-12-07T21:02:54;99190.00;;;3.78;81.68
62011;BME280;47967;51.756;10.174;2022-12-07T21:06:57;99185.69;;;3.77;81.23
62011;BME280;47967;51.756;10.174;2022-12-07T21:11:07;99185.16;;;3.82;81.06
62011;BME280;47967;51.756;10.174;2022-12-07T21:15:10;99179.50;;;3.77;81.47
62011;BME280;47967;51.756;10.174;2022-12-07T21:19:13;99188.34;;;3.69;81.32
62011;BME280;47967;51.756;10.174;2022-12-07T21:23:16;99180.72;;;3.41;81.32
62011;BME280;47967;51.756;10.174;2022-12-07T21:27:20;99174.06;;;3.37;81.56
62011;BME280;47967;51.756;10.174;2022-12-07T21:31:22;99173.72;;;3.32;81.50
62011;BME280;47967;51.756;10.174;2022-12-07T21:35:26;99178.25;;;3.40;81.74
62011;BME280;47967;51.756;10.174;2022-12-07T21:39:28;99164.41;;;3.36;81.69
62011;BME280;47967;51.756;10.174;2022-12-07T21:43:32;99169.06;;;3.34;81.94
62011;BME280;47967;51.756;10.174;2022-12-07T21:47:35;99171.91;;;3.32;81.81
62011;BME280;47967;51.756;10.174;2022-12-07T21:51:38;99164.72;;;3.33;81.84
62011;BME280;47967;51.756;10.174;2022-12-07T21:55:43;99157.59;;;3.33;81.85
62011;BME280;47967;51.756;10.174;2022-12-07T21:59:47;99154.06;;;3.33;82.45
